Terminal Aerodrome Forecast
Issued by NWS

Home | Current Version | Previous Version | Text Only | Print | Product List | Glossary On
Versions: 1 2 3 4 5 6 7 8 9 10 11 12 13 14 15 16 17 18 19 20 21
548
FTUS45 KABQ 192336
TAFROW
TAF
KROW 192336Z 2000/2024 28013KT P6SM BKN100
     FM200300 27015G22KT P6SM BKN100
     FM200900 25010KT P6SM SCT150
     FM201700 23014G21KT P6SM SKC
     FM202200 25024G32KT P6SM OVC250=

USA.gov is the U.S. government's official web portal to all federal, state and local government web resources and services.